sensor_id;sensor_type;location;lat;lon;timestamp;P1;durP1;ratioP1;P2;durP2;ratioP2
65896;SDS011;52677;50.898;10.854;2022-09-23T00:01:19;7.28;;;5.95;;
65896;SDS011;52677;50.898;10.854;2022-09-23T00:03:19;10.15;;;6.30;;
65896;SDS011;52677;50.898;10.854;2022-09-23T00:05:20;7.55;;;5.88;;
65896;SDS011;52677;50.898;10.854;2022-09-23T00:07:20;10.05;;;5.90;;
65896;SDS011;52677;50.898;10.854;2022-09-23T00:09:21;9.32;;;6.57;;
65896;SDS011;52677;50.898;10.854;2022-09-23T00:11:22;6.80;;;5.38;;
65896;SDS011;52677;50.898;10.854;2022-09-23T00:13:24;7.32;;;5.72;;
65896;SDS011;52677;50.898;10.854;2022-09-23T00:15:25;5.80;;;5.10;;
65896;SDS011;52677;50.898;10.854;2022-09-23T00:17:25;9.18;;;5.60;;
65896;SDS011;52677;50.898;10.854;2022-09-23T00:19:26;8.93;;;5.40;;
65896;SDS011;52677;50.898;10.854;2022-09-23T00:21:26;9.20;;;6.07;;
65896;SDS011;52677;50.898;10.854;2022-09-23T00:23:27;8.55;;;5.80;;
65896;SDS011;52677;50.898;10.854;2022-09-23T00:25:27;8.32;;;6.15;;
65896;SDS011;52677;50.898;10.854;2022-09-23T00:27:28;11.27;;;5.90;;
65896;SDS011;52677;50.898;10.854;2022-09-23T00:29:29;10.73;;;6.22;;
65896;SDS011;52677;50.898;10.854;2022-09-23T00:31:30;8.00;;;6.38;;
65896;SDS011;52677;50.898;10.854;2022-09-23T00:33:31;12.40;;;7.10;;
65896;SDS011;52677;50.898;10.854;2022-09-23T00:35:31;13.60;;;6.00;;
65896;SDS011;52677;50.898;10.854;2022-09-23T00:37:31;9.77;;;6.47;;
65896;SDS011;52677;50.898;10.854;2022-09-23T00:39:32;8.60;;;5.53;;
65896;SDS011;52677;50.898;10.854;2022-09-23T00:41:32;10.77;;;6.25;;
65896;SDS011;52677;50.898;10.854;2022-09-23T00:43:41;8.73;;;6.47;;
65896;SDS011;52677;50.898;10.854;2022-09-23T00:45:50;12.30;;;6.03;;
65896;SDS011;52677;50.898;10.854;2022-09-23T00:47:54;12.38;;;6.57;;
65896;SDS011;52677;50.898;10.854;2022-09-23T00:50:00;10.45;;;5.90;;
65896;SDS011;52677;50.898;10.854;2022-09-23T00:52:06;13.07;;;6.68;;
65896;SDS011;52677;50.898;10.854;2022-09-23T00:54:11;7.55;;;5.78;;
65896;SDS011;52677;50.898;10.854;2022-09-23T00:56:11;11.98;;;5.95;;
65896;SDS011;52677;50.898;10.854;2022-09-23T00:58:14;8.88;;;5.90;;
65896;SDS011;52677;50.898;10.854;2022-09-23T01:00:19;8.60;;;5.30;;
65896;SDS011;52677;50.898;10.854;2022-09-23T01:02:20;8.27;;;5.28;;
65896;SDS011;52677;50.898;10.854;2022-09-23T01:04:21;11.07;;;6.93;;
65896;SDS011;52677;50.898;10.854;2022-09-23T01:06:23;9.27;;;6.50;;
65896;SDS011;52677;50.898;10.854;2022-09-23T01:08:25;9.57;;;7.13;;
65896;SDS011;52677;50.898;10.854;2022-09-23T01:10:28;7.97;;;6.20;;
65896;SDS011;52677;50.898;10.854;2022-09-23T01:12:45;10.35;;;6.18;;
65896;SDS011;52677;50.898;10.854;2022-09-23T01:17:12;7.15;;;5.63;;
65896;SDS011;52677;50.898;10.854;2022-09-23T01:21:57;8.07;;;5.80;;
65896;SDS011;52677;50.898;10.854;2022-09-23T01:29:01;7.50;;;5.88;;
65896;SDS011;52677;50.898;10.854;2022-09-23T01:37:42;9.65;;;6.15;;
65896;SDS011;52677;50.898;10.854;2022-09-23T01:40:28;8.63;;;6.15;;
65896;SDS011;52677;50.898;10.854;2022-09-23T01:42:14;11.32;;;8.18;;
65896;SDS011;52677;50.898;10.854;2022-09-23T01:44:18;11.32;;;8.45;;
65896;SDS011;52677;50.898;10.854;2022-09-23T01:47:07;9.52;;;8.00;;
65896;SDS011;52677;50.898;10.854;2022-09-23T01:51:13;7.97;;;6.65;;
65896;SDS011;52677;50.898;10.854;2022-09-23T01:53:19;7.25;;;6.35;;
65896;SDS011;52677;50.898;10.854;2022-09-23T01:55:27;10.68;;;6.57;;
65896;SDS011;52677;50.898;10.854;2022-09-23T01:57:39;11.10;;;7.65;;
65896;SDS011;52677;50.898;10.854;2022-09-23T01:59:49;9.25;;;6.82;;
65896;SDS011;52677;50.898;10.854;2022-09-23T02:02:00;13.32;;;8.38;;
65896;SDS011;52677;50.898;10.854;2022-09-23T02:04:27;10.23;;;7.93;;
65896;SDS011;52677;50.898;10.854;2022-09-23T02:06:38;12.18;;;7.05;;
65896;SDS011;52677;50.898;10.854;2022-09-23T02:10:47;9.27;;;6.72;;
65896;SDS011;52677;50.898;10.854;2022-09-23T02:12:53;14.07;;;8.75;;
65896;SDS011;52677;50.898;10.854;2022-09-23T02:17:07;11.98;;;7.45;;
65896;SDS011;52677;50.898;10.854;2022-09-23T02:19:12;8.30;;;6.70;;
65896;SDS011;52677;50.898;10.854;2022-09-23T02:21:19;9.52;;;7.00;;
65896;SDS011;52677;50.898;10.854;2022-09-23T02:23:26;8.10;;;7.30;;
65896;SDS011;52677;50.898;10.854;2022-09-23T02:25:30;7.80;;;6.70;;
65896;SDS011;52677;50.898;10.854;2022-09-23T02:27:49;12.73;;;7.40;;
65896;SDS011;52677;50.898;10.854;2022-09-23T02:29:54;8.40;;;6.18;;
65896;SDS011;52677;50.898;10.854;2022-09-23T02:34:41;8.70;;;6.60;;
65896;SDS011;52677;50.898;10.854;2022-09-23T02:38:58;9.38;;;6.65;;
65896;SDS011;52677;50.898;10.854;2022-09-23T02:41:06;8.02;;;7.13;;
65896;SDS011;52677;50.898;10.854;2022-09-23T02:45:47;10.15;;;6.32;;
65896;SDS011;52677;50.898;10.854;2022-09-23T02:47:51;8.80;;;6.10;;
65896;SDS011;52677;50.898;10.854;2022-09-23T02:49:55;6.35;;;5.55;;
65896;SDS011;52677;50.898;10.854;2022-09-23T02:51:56;12.45;;;7.45;;
65896;SDS011;52677;50.898;10.854;2022-09-23T02:53:59;9.57;;;5.95;;
65896;SDS011;52677;50.898;10.854;2022-09-23T02:56:11;7.57;;;5.90;;
65896;SDS011;52677;50.898;10.854;2022-09-23T02:58:15;8.98;;;7.32;;
65896;SDS011;52677;50.898;10.854;2022-09-23T03:00:16;7.00;;;6.30;;
65896;SDS011;52677;50.898;10.854;2022-09-23T03:06:46;8.45;;;6.53;;
65896;SDS011;52677;50.898;10.854;2022-09-23T03:08:54;8.05;;;6.22;;
65896;SDS011;52677;50.898;10.854;2022-09-23T03:11:02;8.68;;;6.13;;
65896;SDS011;52677;50.898;10.854;2022-09-23T03:13:16;9.40;;;6.82;;
65896;SDS011;52677;50.898;10.854;2022-09-23T03:15:32;6.05;;;5.45;;
65896;SDS011;52677;50.898;10.854;2022-09-23T03:19:45;6.75;;;5.68;;
65896;SDS011;52677;50.898;10.854;2022-09-23T03:21:58;10.35;;;6.65;;
65896;SDS011;52677;50.898;10.854;2022-09-23T03:24:03;8.05;;;6.40;;
65896;SDS011;52677;50.898;10.854;2022-09-23T03:26:11;8.73;;;6.60;;
65896;SDS011;52677;50.898;10.854;2022-09-23T03:28:16;9.35;;;6.90;;
65896;SDS011;52677;50.898;10.854;2022-09-23T03:32:21;6.43;;;5.80;;
65896;SDS011;52677;50.898;10.854;2022-09-23T03:34:27;9.57;;;6.07;;
65896;SDS011;52677;50.898;10.854;2022-09-23T03:36:33;7.28;;;5.85;;
65896;SDS011;52677;50.898;10.854;2022-09-23T03:38:50;8.35;;;6.65;;
65896;SDS011;52677;50.898;10.854;2022-09-23T03:40:58;7.95;;;5.90;;
65896;SDS011;52677;50.898;10.854;2022-09-23T03:43:01;6.82;;;5.90;;
65896;SDS011;52677;50.898;10.854;2022-09-23T03:45:04;7.68;;;5.90;;
65896;SDS011;52677;50.898;10.854;2022-09-23T03:47:08;8.27;;;6.03;;
65896;SDS011;52677;50.898;10.854;2022-09-23T03:51:26;6.93;;;6.05;;
65896;SDS011;52677;50.898;10.854;2022-09-23T03:53:26;7.35;;;6.15;;
65896;SDS011;52677;50.898;10.854;2022-09-23T03:55:26;7.05;;;6.07;;
65896;SDS011;52677;50.898;10.854;2022-09-23T03:57:27;9.45;;;6.10;;
65896;SDS011;52677;50.898;10.854;2022-09-23T03:59:27;8.95;;;6.05;;
65896;SDS011;52677;50.898;10.854;2022-09-23T04:01:29;8.02;;;5.93;;
65896;SDS011;52677;50.898;10.854;2022-09-23T04:03:29;8.38;;;6.20;;
65896;SDS011;52677;50.898;10.854;2022-09-23T04:05:30;10.00;;;5.53;;
65896;SDS011;52677;50.898;10.854;2022-09-23T04:07:30;7.60;;;5.95;;
65896;SDS011;52677;50.898;10.854;2022-09-23T04:09:30;8.20;;;6.30;;
65896;SDS011;52677;50.898;10.854;2022-09-23T04:11:31;7.60;;;5.90;;
65896;SDS011;52677;50.898;10.854;2022-09-23T04:13:33;6.88;;;5.80;;
65896;SDS011;52677;50.898;10.854;2022-09-23T04:15:33;7.10;;;6.18;;
65896;SDS011;52677;50.898;10.854;2022-09-23T04:17:33;6.80;;;6.00;;
65896;SDS011;52677;50.898;10.854;2022-09-23T04:19:34;8.23;;;5.90;;
65896;SDS011;52677;50.898;10.854;2022-09-23T04:21:34;7.57;;;5.03;;
65896;SDS011;52677;50.898;10.854;2022-09-23T04:23:35;6.13;;;5.30;;
65896;SDS011;52677;50.898;10.854;2022-09-23T04:25:35;6.93;;;5.22;;
65896;SDS011;52677;50.898;10.854;2022-09-23T04:27:35;6.15;;;5.50;;
65896;SDS011;52677;50.898;10.854;2022-09-23T04:29:36;7.53;;;5.32;;
65896;SDS011;52677;50.898;10.854;2022-09-23T04:31:36;7.68;;;5.40;;
65896;SDS011;52677;50.898;10.854;2022-09-23T04:33:37;7.88;;;5.93;;
65896;SDS011;52677;50.898;10.854;2022-09-23T04:35:37;7.43;;;5.53;;
65896;SDS011;52677;50.898;10.854;2022-09-23T04:37:38;6.88;;;5.50;;
65896;SDS011;52677;50.898;10.854;2022-09-23T04:39:39;5.90;;;5.30;;
65896;SDS011;52677;50.898;10.854;2022-09-23T04:41:39;6.93;;;5.25;;
65896;SDS011;52677;50.898;10.854;2022-09-23T04:43:41;8.90;;;5.65;;
65896;SDS011;52677;50.898;10.854;2022-09-23T04:45:42;7.28;;;5.20;;
65896;SDS011;52677;50.898;10.854;2022-09-23T04:47:42;8.02;;;5.45;;
65896;SDS011;52677;50.898;10.854;2022-09-23T04:49:43;6.75;;;4.75;;
65896;SDS011;52677;50.898;10.854;2022-09-23T04:51:43;5.95;;;4.97;;
65896;SDS011;52677;50.898;10.854;2022-09-23T04:53:45;8.88;;;6.00;;
65896;SDS011;52677;50.898;10.854;2022-09-23T04:57:47;11.25;;;5.55;;
65896;SDS011;52677;50.898;10.854;2022-09-23T04:59:47;7.03;;;5.47;;
65896;SDS011;52677;50.898;10.854;2022-09-23T05:01:48;7.70;;;5.85;;
65896;SDS011;52677;50.898;10.854;2022-09-23T05:04:00;5.82;;;5.18;;
65896;SDS011;52677;50.898;10.854;2022-09-23T05:06:04;5.95;;;4.90;;
65896;SDS011;52677;50.898;10.854;2022-09-23T05:08:05;6.63;;;5.45;;
65896;SDS011;52677;50.898;10.854;2022-09-23T05:10:05;7.13;;;6.07;;
65896;SDS011;52677;50.898;10.854;2022-09-23T05:12:06;7.45;;;6.05;;
65896;SDS011;52677;50.898;10.854;2022-09-23T05:14:07;8.88;;;5.93;;
65896;SDS011;52677;50.898;10.854;2022-09-23T05:16:08;5.85;;;5.07;;
65896;SDS011;52677;50.898;10.854;2022-09-23T05:18:10;8.70;;;5.75;;
65896;SDS011;52677;50.898;10.854;2022-09-23T05:20:11;7.15;;;5.20;;
65896;SDS011;52677;50.898;10.854;2022-09-23T05:22:12;6.80;;;5.50;;
65896;SDS011;52677;50.898;10.854;2022-09-23T05:24:12;6.65;;;5.63;;
65896;SDS011;52677;50.898;10.854;2022-09-23T05:26:12;8.15;;;6.00;;
65896;SDS011;52677;50.898;10.854;2022-09-23T05:28:14;7.05;;;5.78;;
65896;SDS011;52677;50.898;10.854;2022-09-23T05:30:17;10.27;;;5.35;;
65896;SDS011;52677;50.898;10.854;2022-09-23T05:32:18;5.78;;;5.18;;
65896;SDS011;52677;50.898;10.854;2022-09-23T05:34:18;7.28;;;5.75;;
65896;SDS011;52677;50.898;10.854;2022-09-23T05:36:19;5.65;;;4.88;;
65896;SDS011;52677;50.898;10.854;2022-09-23T05:38:20;8.43;;;5.28;;
65896;SDS011;52677;50.898;10.854;2022-09-23T05:40:20;6.70;;;5.60;;
65896;SDS011;52677;50.898;10.854;2022-09-23T05:42:21;8.48;;;5.78;;
65896;SDS011;52677;50.898;10.854;2022-09-23T05:44:21;7.50;;;5.60;;
65896;SDS011;52677;50.898;10.854;2022-09-23T05:46:22;7.32;;;6.00;;
65896;SDS011;52677;50.898;10.854;2022-09-23T05:48:28;6.68;;;5.63;;
65896;SDS011;52677;50.898;10.854;2022-09-23T05:50:30;7.40;;;6.10;;
65896;SDS011;52677;50.898;10.854;2022-09-23T05:52:30;5.60;;;5.05;;
65896;SDS011;52677;50.898;10.854;2022-09-23T05:54:31;6.68;;;5.72;;
65896;SDS011;52677;50.898;10.854;2022-09-23T05:56:32;6.55;;;5.85;;
65896;SDS011;52677;50.898;10.854;2022-09-23T05:58:33;7.35;;;6.18;;
65896;SDS011;52677;50.898;10.854;2022-09-23T06:00:33;7.05;;;5.70;;
65896;SDS011;52677;50.898;10.854;2022-09-23T06:02:34;6.18;;;5.57;;
65896;SDS011;52677;50.898;10.854;2022-09-23T06:04:34;7.03;;;5.85;;
65896;SDS011;52677;50.898;10.854;2022-09-23T06:06:35;6.68;;;5.78;;
65896;SDS011;52677;50.898;10.854;2022-09-23T06:08:38;7.90;;;6.57;;
65896;SDS011;52677;50.898;10.854;2022-09-23T06:10:39;9.82;;;6.28;;
65896;SDS011;52677;50.898;10.854;2022-09-23T06:12:41;6.95;;;6.10;;
65896;SDS011;52677;50.898;10.854;2022-09-23T06:14:43;7.97;;;6.65;;
65896;SDS011;52677;50.898;10.854;2022-09-23T06:16:44;6.85;;;5.82;;
65896;SDS011;52677;50.898;10.854;2022-09-23T06:18:44;7.90;;;6.28;;
65896;SDS011;52677;50.898;10.854;2022-09-23T06:20:45;11.55;;;5.78;;
65896;SDS011;52677;50.898;10.854;2022-09-23T06:22:45;8.15;;;6.28;;
65896;SDS011;52677;50.898;10.854;2022-09-23T06:24:45;6.80;;;6.00;;
65896;SDS011;52677;50.898;10.854;2022-09-23T06:26:46;12.35;;;6.22;;
65896;SDS011;52677;50.898;10.854;2022-09-23T06:28:47;7.00;;;5.93;;
65896;SDS011;52677;50.898;10.854;2022-09-23T06:30:47;8.50;;;5.93;;
65896;SDS011;52677;50.898;10.854;2022-09-23T06:32:48;8.98;;;6.10;;
65896;SDS011;52677;50.898;10.854;2022-09-23T06:34:52;9.50;;;5.82;;
65896;SDS011;52677;50.898;10.854;2022-09-23T06:36:53;6.95;;;6.15;;
65896;SDS011;52677;50.898;10.854;2022-09-23T06:38:54;8.02;;;5.88;;
65896;SDS011;52677;50.898;10.854;2022-09-23T06:40:55;10.07;;;6.40;;
65896;SDS011;52677;50.898;10.854;2022-09-23T06:42:57;6.53;;;5.55;;
65896;SDS011;52677;50.898;10.854;2022-09-23T06:44:59;7.72;;;6.43;;
65896;SDS011;52677;50.898;10.854;2022-09-23T06:46:59;9.13;;;6.60;;
65896;SDS011;52677;50.898;10.854;2022-09-23T06:49:00;10.30;;;8.35;;
65896;SDS011;52677;50.898;10.854;2022-09-23T06:51:02;9.38;;;7.65;;
65896;SDS011;52677;50.898;10.854;2022-09-23T06:53:06;9.82;;;7.22;;
65896;SDS011;52677;50.898;10.854;2022-09-23T06:55:06;9.43;;;7.22;;
65896;SDS011;52677;50.898;10.854;2022-09-23T06:59:09;14.30;;;10.13;;
65896;SDS011;52677;50.898;10.854;2022-09-23T07:01:12;15.93;;;11.98;;
65896;SDS011;52677;50.898;10.854;2022-09-23T07:03:18;14.38;;;12.68;;
65896;SDS011;52677;50.898;10.854;2022-09-23T07:05:18;16.65;;;13.55;;
65896;SDS011;52677;50.898;10.854;2022-09-23T07:07:18;15.15;;;11.70;;
65896;SDS011;52677;50.898;10.854;2022-09-23T07:09:19;11.02;;;9.85;;
65896;SDS011;52677;50.898;10.854;2022-09-23T07:11:19;10.38;;;9.07;;
65896;SDS011;52677;50.898;10.854;2022-09-23T07:13:21;10.15;;;8.57;;
65896;SDS011;52677;50.898;10.854;2022-09-23T07:15:22;9.52;;;8.10;;
65896;SDS011;52677;50.898;10.854;2022-09-23T07:17:23;8.40;;;7.50;;
65896;SDS011;52677;50.898;10.854;2022-09-23T07:19:23;10.10;;;7.55;;
65896;SDS011;52677;50.898;10.854;2022-09-23T07:21:25;14.02;;;7.28;;
65896;SDS011;52677;50.898;10.854;2022-09-23T07:23:26;10.32;;;7.95;;
65896;SDS011;52677;50.898;10.854;2022-09-23T07:25:27;8.93;;;7.13;;
65896;SDS011;52677;50.898;10.854;2022-09-23T07:27:28;8.52;;;6.80;;
65896;SDS011;52677;50.898;10.854;2022-09-23T07:29:28;8.25;;;6.18;;
65896;SDS011;52677;50.898;10.854;2022-09-23T07:31:32;10.70;;;6.93;;
65896;SDS011;52677;50.898;10.854;2022-09-23T07:33:34;9.55;;;7.22;;
65896;SDS011;52677;50.898;10.854;2022-09-23T07:35:38;8.00;;;6.60;;
65896;SDS011;52677;50.898;10.854;2022-09-23T07:37:40;13.38;;;7.15;;
65896;SDS011;52677;50.898;10.854;2022-09-23T07:39:40;7.82;;;6.78;;
65896;SDS011;52677;50.898;10.854;2022-09-23T07:41:40;7.85;;;6.18;;
65896;SDS011;52677;50.898;10.854;2022-09-23T07:43:43;9.55;;;6.25;;
65896;SDS011;52677;50.898;10.854;2022-09-23T07:45:45;11.02;;;6.03;;
65896;SDS011;52677;50.898;10.854;2022-09-23T07:47:46;7.38;;;5.80;;
65896;SDS011;52677;50.898;10.854;2022-09-23T07:49:46;10.90;;;6.97;;
65896;SDS011;52677;50.898;10.854;2022-09-23T07:51:46;7.78;;;5.80;;
65896;SDS011;52677;50.898;10.854;2022-09-23T07:53:48;7.32;;;5.78;;
65896;SDS011;52677;50.898;10.854;2022-09-23T07:55:50;6.18;;;5.53;;
65896;SDS011;52677;50.898;10.854;2022-09-23T07:57:54;7.03;;;5.80;;
65896;SDS011;52677;50.898;10.854;2022-09-23T07:59:54;5.80;;;5.05;;
65896;SDS011;52677;50.898;10.854;2022-09-23T08:01:55;10.65;;;5.68;;
65896;SDS011;52677;50.898;10.854;2022-09-23T08:03:56;6.53;;;4.63;;
65896;SDS011;52677;50.898;10.854;2022-09-23T08:06:02;8.30;;;5.35;;
65896;SDS011;52677;50.898;10.854;2022-09-23T08:08:11;8.50;;;5.40;;
65896;SDS011;52677;50.898;10.854;2022-09-23T08:10:13;6.35;;;5.30;;
65896;SDS011;52677;50.898;10.854;2022-09-23T08:12:15;8.43;;;5.97;;
65896;SDS011;52677;50.898;10.854;2022-09-23T08:14:16;13.85;;;5.95;;
65896;SDS011;52677;50.898;10.854;2022-09-23T08:16:18;7.20;;;4.90;;
65896;SDS011;52677;50.898;10.854;2022-09-23T08:18:18;5.93;;;5.10;;
65896;SDS011;52677;50.898;10.854;2022-09-23T08:20:19;6.10;;;5.32;;
65896;SDS011;52677;50.898;10.854;2022-09-23T08:22:38;8.88;;;5.53;;
65896;SDS011;52677;50.898;10.854;2022-09-23T08:24:38;6.68;;;4.93;;
65896;SDS011;52677;50.898;10.854;2022-09-23T08:26:38;7.13;;;5.50;;
65896;SDS011;52677;50.898;10.854;2022-09-23T08:28:39;7.72;;;4.90;;
65896;SDS011;52677;50.898;10.854;2022-09-23T08:30:42;7.30;;;4.80;;
65896;SDS011;52677;50.898;10.854;2022-09-23T08:32:44;5.22;;;4.72;;
65896;SDS011;52677;50.898;10.854;2022-09-23T08:34:44;6.85;;;4.60;;
65896;SDS011;52677;50.898;10.854;2022-09-23T08:36:45;5.78;;;4.78;;
65896;SDS011;52677;50.898;10.854;2022-09-23T08:38:46;6.13;;;4.78;;
65896;SDS011;52677;50.898;10.854;2022-09-23T08:40:47;5.38;;;4.57;;
65896;SDS011;52677;50.898;10.854;2022-09-23T08:42:49;5.70;;;4.05;;
65896;SDS011;52677;50.898;10.854;2022-09-23T08:44:50;4.20;;;3.70;;
65896;SDS011;52677;50.898;10.854;2022-09-23T08:47:01;5.57;;;4.18;;
65896;SDS011;52677;50.898;10.854;2022-09-23T08:49:15;5.75;;;4.00;;
65896;SDS011;52677;50.898;10.854;2022-09-23T08:51:27;4.60;;;3.95;;
65896;SDS011;52677;50.898;10.854;2022-09-23T08:53:35;5.47;;;4.60;;
65896;SDS011;52677;50.898;10.854;2022-09-23T08:55:38;5.95;;;4.57;;
65896;SDS011;52677;50.898;10.854;2022-09-23T08:57:55;6.63;;;3.88;;
65896;SDS011;52677;50.898;10.854;2022-09-23T09:00:12;4.50;;;3.33;;
65896;SDS011;52677;50.898;10.854;2022-09-23T09:02:17;4.70;;;3.65;;
65896;SDS011;52677;50.898;10.854;2022-09-23T09:06:43;5.95;;;4.20;;
65896;SDS011;52677;50.898;10.854;2022-09-23T09:08:54;5.30;;;4.00;;
65896;SDS011;52677;50.898;10.854;2022-09-23T09:10:58;5.47;;;3.88;;
65896;SDS011;52677;50.898;10.854;2022-09-23T09:13:02;6.18;;;4.40;;
65896;SDS011;52677;50.898;10.854;2022-09-23T09:15:10;6.78;;;4.25;;
65896;SDS011;52677;50.898;10.854;2022-09-23T09:17:58;8.10;;;4.97;;
65896;SDS011;52677;50.898;10.854;2022-09-23T09:19:51;5.45;;;2.78;;
65896;SDS011;52677;50.898;10.854;2022-09-23T09:23:53;4.93;;;2.50;;
65896;SDS011;52677;50.898;10.854;2022-09-23T09:28:00;4.30;;;2.60;;
65896;SDS011;52677;50.898;10.854;2022-09-23T09:30:10;4.38;;;3.20;;
65896;SDS011;52677;50.898;10.854;2022-09-23T09:32:23;4.43;;;3.20;;
65896;SDS011;52677;50.898;10.854;2022-09-23T09:34:36;3.97;;;2.72;;
65896;SDS011;52677;50.898;10.854;2022-09-23T09:39:00;4.40;;;2.92;;
65896;SDS011;52677;50.898;10.854;2022-09-23T09:41:07;2.92;;;2.63;;
65896;SDS011;52677;50.898;10.854;2022-09-23T09:43:16;5.35;;;3.55;;
65896;SDS011;52677;50.898;10.854;2022-09-23T09:45:39;4.97;;;3.00;;
65896;SDS011;52677;50.898;10.854;2022-09-23T09:47:50;4.88;;;3.63;;
65896;SDS011;52677;50.898;10.854;2022-09-23T09:52:20;5.15;;;3.80;;
65896;SDS011;52677;50.898;10.854;2022-09-23T09:54:21;3.65;;;2.47;;
65896;SDS011;52677;50.898;10.854;2022-09-23T09:56:31;5.50;;;4.00;;
65896;SDS011;52677;50.898;10.854;2022-09-23T10:00:49;5.35;;;2.20;;
65896;SDS011;52677;50.898;10.854;2022-09-23T10:02:52;3.78;;;2.22;;
65896;SDS011;52677;50.898;10.854;2022-09-23T10:05:04;2.25;;;2.00;;
65896;SDS011;52677;50.898;10.854;2022-09-23T10:07:07;3.13;;;2.15;;
65896;SDS011;52677;50.898;10.854;2022-09-23T10:11:18;1.98;;;1.77;;
65896;SDS011;52677;50.898;10.854;2022-09-23T10:13:18;3.03;;;1.42;;
65896;SDS011;52677;50.898;10.854;2022-09-23T10:15:39;3.50;;;1.80;;
65896;SDS011;52677;50.898;10.854;2022-09-23T10:17:42;2.55;;;1.98;;
65896;SDS011;52677;50.898;10.854;2022-09-23T10:19:43;2.58;;;1.95;;
65896;SDS011;52677;50.898;10.854;2022-09-23T10:21:49;2.50;;;1.80;;
65896;SDS011;52677;50.898;10.854;2022-09-23T10:23:53;3.65;;;1.75;;
65896;SDS011;52677;50.898;10.854;2022-09-23T10:26:00;1.80;;;1.70;;
65896;SDS011;52677;50.898;10.854;2022-09-23T10:30:42;2.60;;;1.70;;
65896;SDS011;52677;50.898;10.854;2022-09-23T10:33:24;2.25;;;2.03;;
65896;SDS011;52677;50.898;10.854;2022-09-23T10:35:26;2.60;;;1.83;;
65896;SDS011;52677;50.898;10.854;2022-09-23T10:39:36;2.72;;;1.42;;
65896;SDS011;52677;50.898;10.854;2022-09-23T10:45:25;2.88;;;2.13;;
65896;SDS011;52677;50.898;10.854;2022-09-23T11:05:16;2.20;;;1.83;;
65896;SDS011;52677;50.898;10.854;2022-09-23T11:07:25;2.10;;;1.58;;
65896;SDS011;52677;50.898;10.854;2022-09-23T11:09:52;2.15;;;1.67;;
65896;SDS011;52677;50.898;10.854;2022-09-23T11:14:33;4.72;;;1.98;;
65896;SDS011;52677;50.898;10.854;2022-09-23T11:27:20;2.38;;;2.00;;
65896;SDS011;52677;50.898;10.854;2022-09-23T11:37:06;2.23;;;1.80;;
65896;SDS011;52677;50.898;10.854;2022-09-23T11:39:22;4.22;;;2.08;;
65896;SDS011;52677;50.898;10.854;2022-09-23T11:41:30;3.45;;;1.65;;
65896;SDS011;52677;50.898;10.854;2022-09-23T11:43:35;3.47;;;2.00;;
65896;SDS011;52677;50.898;10.854;2022-09-23T11:45:39;1.98;;;1.77;;
65896;SDS011;52677;50.898;10.854;2022-09-23T11:47:46;2.47;;;2.00;;
65896;SDS011;52677;50.898;10.854;2022-09-23T11:52:26;4.32;;;1.70;;
65896;SDS011;52677;50.898;10.854;2022-09-23T11:56:52;2.47;;;1.90;;
65896;SDS011;52677;50.898;10.854;2022-09-23T11:59:21;2.97;;;1.80;;
65896;SDS011;52677;50.898;10.854;2022-09-23T12:01:33;2.40;;;1.65;;
65896;SDS011;52677;50.898;10.854;2022-09-23T12:03:43;2.63;;;1.90;;
65896;SDS011;52677;50.898;10.854;2022-09-23T12:06:09;2.13;;;1.90;;
65896;SDS011;52677;50.898;10.854;2022-09-23T12:18:01;2.10;;;1.65;;
65896;SDS011;52677;50.898;10.854;2022-09-23T12:19:56;2.05;;;1.60;;
65896;SDS011;52677;50.898;10.854;2022-09-23T12:26:37;2.22;;;1.60;;
65896;SDS011;52677;50.898;10.854;2022-09-23T12:28:39;2.60;;;1.65;;
65896;SDS011;52677;50.898;10.854;2022-09-23T12:30:46;2.00;;;1.50;;
65896;SDS011;52677;50.898;10.854;2022-09-23T12:32:49;2.17;;;1.63;;
65896;SDS011;52677;50.898;10.854;2022-09-23T12:34:50;2.05;;;1.60;;
65896;SDS011;52677;50.898;10.854;2022-09-23T12:36:52;1.98;;;1.60;;
65896;SDS011;52677;50.898;10.854;2022-09-23T12:38:58;2.42;;;1.90;;
65896;SDS011;52677;50.898;10.854;2022-09-23T12:41:19;1.70;;;1.60;;
65896;SDS011;52677;50.898;10.854;2022-09-23T12:43:27;1.85;;;1.50;;
65896;SDS011;52677;50.898;10.854;2022-09-23T12:47:37;3.30;;;1.70;;
65896;SDS011;52677;50.898;10.854;2022-09-23T12:49:38;3.78;;;1.70;;
65896;SDS011;52677;50.898;10.854;2022-09-23T12:51:39;2.50;;;1.40;;
65896;SDS011;52677;50.898;10.854;2022-09-23T12:54:22;1.70;;;1.35;;
65896;SDS011;52677;50.898;10.854;2022-09-23T12:56:27;2.45;;;1.23;;
65896;SDS011;52677;50.898;10.854;2022-09-23T13:01:04;1.67;;;1.30;;
65896;SDS011;52677;50.898;10.854;2022-09-23T13:03:24;1.77;;;1.52;;
65896;SDS011;52677;50.898;10.854;2022-09-23T13:05:50;3.60;;;1.40;;
65896;SDS011;52677;50.898;10.854;2022-09-23T13:08:16;2.00;;;1.30;;
65896;SDS011;52677;50.898;10.854;2022-09-23T13:10:24;1.98;;;1.50;;
65896;SDS011;52677;50.898;10.854;2022-09-23T13:12:30;1.80;;;1.52;;
65896;SDS011;52677;50.898;10.854;2022-09-23T13:14:33;1.40;;;1.30;;
65896;SDS011;52677;50.898;10.854;2022-09-23T13:16:40;2.22;;;1.42;;
65896;SDS011;52677;50.898;10.854;2022-09-23T13:18:49;1.95;;;1.30;;
65896;SDS011;52677;50.898;10.854;2022-09-23T13:20:50;1.63;;;1.50;;
65896;SDS011;52677;50.898;10.854;2022-09-23T13:24:52;2.33;;;1.40;;
65896;SDS011;52677;50.898;10.854;2022-09-23T13:26:55;1.95;;;1.30;;
65896;SDS011;52677;50.898;10.854;2022-09-23T13:29:09;2.45;;;1.30;;
65896;SDS011;52677;50.898;10.854;2022-09-23T13:31:16;4.22;;;1.50;;
65896;SDS011;52677;50.898;10.854;2022-09-23T13:35:25;1.77;;;1.35;;
65896;SDS011;52677;50.898;10.854;2022-09-23T13:39:36;1.73;;;1.40;;
65896;SDS011;52677;50.898;10.854;2022-09-23T13:41:36;1.70;;;1.30;;
65896;SDS011;52677;50.898;10.854;2022-09-23T13:43:38;1.98;;;1.67;;
65896;SDS011;52677;50.898;10.854;2022-09-23T13:45:42;2.28;;;1.63;;
65896;SDS011;52677;50.898;10.854;2022-09-23T13:47:43;1.92;;;1.50;;
65896;SDS011;52677;50.898;10.854;2022-09-23T13:49:45;1.80;;;1.50;;
65896;SDS011;52677;50.898;10.854;2022-09-23T13:51:47;2.47;;;1.40;;
65896;SDS011;52677;50.898;10.854;2022-09-23T13:53:51;2.38;;;1.40;;
65896;SDS011;52677;50.898;10.854;2022-09-23T13:58:26;1.77;;;1.40;;
65896;SDS011;52677;50.898;10.854;2022-09-23T14:00:32;1.58;;;1.20;;
65896;SDS011;52677;50.898;10.854;2022-09-23T14:02:40;2.10;;;1.50;;
65896;SDS011;52677;50.898;10.854;2022-09-23T14:04:41;1.48;;;1.38;;
65896;SDS011;52677;50.898;10.854;2022-09-23T14:06:42;1.50;;;1.27;;
65896;SDS011;52677;50.898;10.854;2022-09-23T14:08:46;2.95;;;1.40;;
65896;SDS011;52677;50.898;10.854;2022-09-23T14:10:49;2.30;;;1.60;;
65896;SDS011;52677;50.898;10.854;2022-09-23T14:12:50;2.15;;;1.58;;
65896;SDS011;52677;50.898;10.854;2022-09-23T14:14:51;1.65;;;1.30;;
65896;SDS011;52677;50.898;10.854;2022-09-23T14:16:52;2.17;;;1.73;;
65896;SDS011;52677;50.898;10.854;2022-09-23T14:18:55;1.67;;;1.50;;
65896;SDS011;52677;50.898;10.854;2022-09-23T14:20:58;2.10;;;1.70;;
65896;SDS011;52677;50.898;10.854;2022-09-23T14:23:17;2.28;;;1.40;;
65896;SDS011;52677;50.898;10.854;2022-09-23T14:25:17;1.88;;;1.65;;
65896;SDS011;52677;50.898;10.854;2022-09-23T14:27:27;2.40;;;1.50;;
65896;SDS011;52677;50.898;10.854;2022-09-23T14:29:30;2.17;;;1.65;;
65896;SDS011;52677;50.898;10.854;2022-09-23T14:31:34;1.83;;;1.48;;
65896;SDS011;52677;50.898;10.854;2022-09-23T14:33:37;3.75;;;1.70;;
65896;SDS011;52677;50.898;10.854;2022-09-23T14:35:40;4.78;;;1.70;;
65896;SDS011;52677;50.898;10.854;2022-09-23T14:37:46;3.22;;;1.60;;
65896;SDS011;52677;50.898;10.854;2022-09-23T14:42:15;3.15;;;1.67;;